Time;durP1;ratioP1;P1;durP2;ratioP2;P2;SDS_P1;SDS_P2;PMS_P1;PMS_P2;Temp;Humidity;BMP_temperature;BMP_pressure;BME280_temperature;BME280_humidity;BME280_pressure;Samples;Min_cycle;Max_cycle;Signal;HPM_P1;HPM_P2
2022/12/03 00:00:06;;;;;;;38.78;13.48;;;;;;;1.23;100.00;98793.19;2595592;28;20224;-82
2022/12/03 00:01:22;;;;;;;36.28;14.15;;;;;;;1.35;100.00;98792.50;2595871;28;20077;-86
2022/12/03 00:02:38;;;;;;;44.88;14.60;;;;;;;1.51;100.00;98794.44;2595887;28;20499;-81
2022/12/03 00:03:54;;;;;;;35.63;13.93;;;;;;;1.59;100.00;98785.97;2595741;28;20053;-82
2022/12/03 00:05:10;;;;;;;36.63;14.43;;;;;;;1.59;100.00;98793.72;2596170;28;20042;-81
2022/12/03 00:06:25;;;;;;;38.42;14.63;;;;;;;1.59;100.00;98796.28;2595736;28;20111;-82
2022/12/03 00:07:41;;;;;;;32.78;14.23;;;;;;;1.30;100.00;98795.00;2595828;28;20390;-82
2022/12/03 00:08:57;;;;;;;35.40;13.90;;;;;;;1.01;100.00;98792.00;2595752;28;20050;-83
2022/12/03 00:10:12;;;;;;;43.60;14.65;;;;;;;1.35;100.00;98790.81;2595555;28;20058;-82
2022/12/03 00:11:28;;;;;;;33.97;13.63;;;;;;;1.40;100.00;98790.88;2595561;28;20111;-84
2022/12/03 00:12:43;;;;;;;39.33;14.73;;;;;;;1.55;100.00;98790.22;2595854;28;20041;-82
2022/12/03 00:13:59;;;;;;;35.00;14.05;;;;;;;1.35;100.00;98795.09;2595435;28;20107;-81
2022/12/03 00:15:15;;;;;;;35.80;13.65;;;;;;;1.27;100.00;98792.38;2595732;28;20495;-84
2022/12/03 00:16:30;;;;;;;40.38;14.30;;;;;;;1.27;100.00;98787.22;2595564;28;20073;-81
2022/12/03 00:17:46;;;;;;;36.75;13.80;;;;;;;1.46;100.00;98790.97;2595654;28;20447;-82
2022/12/03 00:19:02;;;;;;;32.55;13.43;;;;;;;1.34;100.00;98785.63;2595388;28;20046;-81
2022/12/03 00:20:22;;;;;;;34.45;13.10;;;;;;;1.59;100.00;98788.56;2595377;28;20115;-84
2022/12/03 00:21:38;;;;;;;36.33;13.95;;;;;;;1.41;100.00;98792.63;2595564;28;20508;-81
2022/12/03 00:22:53;;;;;;;33.28;13.25;;;;;;;1.46;100.00;98793.53;2595761;28;20112;-81
2022/12/03 00:24:09;;;;;;;34.42;13.18;;;;;;;1.20;100.00;98783.69;2595688;28;20049;-81
2022/12/03 00:25:25;;;;;;;34.47;14.13;;;;;;;1.35;100.00;98787.34;2595468;28;20740;-84
2022/12/03 00:26:41;;;;;;;33.60;13.65;;;;;;;1.37;100.00;98783.94;2596065;28;20064;-82
2022/12/03 00:27:56;;;;;;;34.40;13.57;;;;;;;1.49;100.00;98780.66;2595814;28;20053;-82
2022/12/03 00:29:12;;;;;;;37.88;13.25;;;;;;;1.45;100.00;98778.91;2596389;28;20053;-82
2022/12/03 00:30:27;;;;;;;34.20;12.73;;;;;;;1.34;100.00;98780.44;2597170;28;20053;-85
2022/12/03 00:31:44;;;;;;;33.75;13.07;;;;;;;1.37;100.00;98783.06;2597608;28;20046;-82
2022/12/03 00:32:59;;;;;;;36.40;13.80;;;;;;;1.45;100.00;98788.34;2597564;28;20439;-84
2022/12/03 00:34:15;;;;;;;31.75;13.35;;;;;;;1.44;100.00;98790.06;2597438;28;20057;-84
2022/12/03 00:35:31;;;;;;;35.20;13.73;;;;;;;1.40;100.00;98788.31;2597651;28;20080;-85
2022/12/03 00:36:47;;;;;;;34.15;13.05;;;;;;;1.28;100.00;98786.38;2597552;28;20069;-83
2022/12/03 00:38:03;;;;;;;36.38;13.25;;;;;;;1.22;100.00;98779.41;2597438;28;20049;-84
2022/12/03 00:39:18;;;;;;;37.53;13.90;;;;;;;1.10;100.00;98784.38;2597312;28;20237;-84
2022/12/03 00:40:34;;;;;;;36.60;14.60;;;;;;;1.39;100.00;98779.69;2597182;28;20056;-83
2022/12/03 00:41:50;;;;;;;38.78;13.98;;;;;;;1.38;100.00;98780.53;2597420;28;20042;-84
2022/12/03 00:43:05;;;;;;;36.97;14.00;;;;;;;1.43;100.00;98778.03;2597285;28;20507;-82
2022/12/03 00:44:21;;;;;;;33.50;12.68;;;;;;;1.32;100.00;98777.00;2597531;28;20057;-84
2022/12/03 00:45:36;;;;;;;36.38;13.63;;;;;;;1.39;100.00;98779.69;2597305;28;20107;-84
2022/12/03 00:46:52;;;;;;;39.25;14.25;;;;;;;1.46;100.00;98782.34;2597244;28;21064;-85
2022/12/03 00:48:07;;;;;;;38.42;13.07;;;;;;;1.19;100.00;98784.53;2597187;28;20466;-90
2022/12/03 00:49:23;;;;;;;30.90;12.40;;;;;;;1.25;100.00;98782.03;2597019;28;20124;-84
2022/12/03 00:50:39;;;;;;;37.25;14.25;;;;;;;1.21;100.00;98779.41;2597145;28;20566;-83
2022/12/03 00:51:54;;;;;;;37.83;13.55;;;;;;;1.22;100.00;98781.16;2597475;28;20141;-83
2022/12/03 00:53:10;;;;;;;33.00;12.90;;;;;;;1.02;100.00;98786.00;2597108;28;20474;-84
2022/12/03 00:54:26;;;;;;;38.83;15.00;;;;;;;1.19;100.00;98781.97;2597333;28;20476;-83
2022/12/03 00:55:41;;;;;;;35.85;14.85;;;;;;;1.40;100.00;98785.72;2597212;28;20058;-83
2022/12/03 00:56:57;;;;;;;36.00;13.93;;;;;;;1.20;100.00;98783.69;2597550;28;20049;-83
2022/12/03 00:58:13;;;;;;;38.10;13.95;;;;;;;1.30;100.00;98783.84;2597080;28;20132;-83
2022/12/03 00:59:29;;;;;;;36.03;14.20;;;;;;;1.32;100.00;98783.00;2596956;28;20061;-84
2022/12/03 01:00:44;;;;;;;35.78;13.95;;;;;;;1.45;100.00;98781.47;2597222;28;20042;-83
2022/12/03 01:02:00;;;;;;;35.95;13.30;;;;;;;1.41;100.00;98787.44;2597444;28;20061;-83
2022/12/03 01:03:15;;;;;;;34.60;13.73;;;;;;;1.23;100.00;98786.31;2597022;28;20389;-84
2022/12/03 01:04:32;;;;;;;38.35;13.25;;;;;;;1.14;100.00;98788.78;2597044;28;20051;-83
2022/12/03 01:05:48;;;;;;;38.65;15.25;;;;;;;1.17;100.00;98786.22;2596702;28;20064;-84
2022/12/03 01:07:04;;;;;;;38.05;15.15;;;;;;;1.27;100.00;98782.97;2597067;28;20148;-85
2022/12/03 01:08:19;;;;;;;34.83;13.20;;;;;;;1.49;100.00;98787.56;2597504;28;20102;-83
2022/12/03 01:09:35;;;;;;;39.60;14.02;;;;;;;1.50;100.00;98784.13;2596760;28;20061;-83
2022/12/03 01:10:50;;;;;;;34.60;13.68;;;;;;;1.34;100.00;98783.91;2597176;28;20057;-82
2022/12/03 01:12:06;;;;;;;34.80;14.45;;;;;;;1.36;100.00;98778.75;2596933;28;20054;-83
2022/12/03 01:13:22;;;;;;;37.75;14.32;;;;;;;1.38;100.00;98777.94;2596792;28;20374;-84
2022/12/03 01:14:37;;;;;;;34.63;14.07;;;;;;;1.50;100.00;98778.97;2597229;28;20057;-83
2022/12/03 01:15:53;;;;;;;37.67;13.57;;;;;;;1.44;100.00;98782.31;2597070;28;20057;-83
2022/12/03 01:17:08;;;;;;;35.47;13.93;;;;;;;1.49;100.00;98780.66;2596665;28;20060;-84
2022/12/03 01:18:24;;;;;;;38.97;14.48;;;;;;;1.59;100.00;98776.50;2597107;28;20053;-89
2022/12/03 01:19:40;;;;;;;38.70;15.13;;;;;;;1.67;100.00;98776.59;2596983;28;20085;-84
2022/12/03 01:20:55;;;;;;;35.65;14.02;;;;;;;1.51;100.00;98778.97;2597375;28;20045;-84
2022/12/03 01:22:11;;;;;;;34.22;13.27;;;;;;;1.29;100.00;98775.22;2597116;28;20390;-83
2022/12/03 01:23:26;;;;;;;39.08;14.68;;;;;;;1.45;100.00;98771.16;2597249;28;20056;-83
2022/12/03 01:24:42;;;;;;;35.47;14.20;;;;;;;1.52;100.00;98774.69;2597247;28;20056;-83
2022/12/03 01:25:58;;;;;;;35.25;13.82;;;;;;;1.26;100.00;98777.75;2596715;28;20068;-82
2022/12/03 01:27:13;;;;;;;39.47;14.65;;;;;;;1.35;100.00;98775.31;2597077;28;20486;-84
2022/12/03 01:28:30;;;;;;;34.45;13.68;;;;;;;1.41;100.00;98774.56;2597308;28;20056;-84
2022/12/03 01:29:46;;;;;;;39.45;14.52;;;;;;;1.45;100.00;98772.84;2596362;28;20423;-84
2022/12/03 01:32:36;;;;;;;34.75;13.60;;;;;;;1.56;100.00;98781.63;2596969;28;20060;-84
2022/12/03 01:33:51;;;;;;;38.20;14.70;;;;;;;1.47;100.00;98777.19;2597075;28;20481;-83
2022/12/03 01:35:07;;;;;;;37.10;15.25;;;;;;;1.47;100.00;98769.47;2596903;28;20042;-83
2022/12/03 01:36:23;;;;;;;39.65;15.18;;;;;;;1.51;100.00;98770.38;2597119;28;20049;-83
2022/12/03 01:37:38;;;;;;;40.75;15.68;;;;;;;1.42;100.00;98778.88;2597062;28;20049;-84
2022/12/03 01:38:54;;;;;;;38.00;15.52;;;;;;;1.59;100.00;98773.91;2597046;28;20049;-86
2022/12/03 01:40:14;;;;;;;38.08;15.27;;;;;;;1.45;100.00;98778.91;2596331;28;20060;-83
2022/12/03 01:41:31;;;;;;;41.25;15.88;;;;;;;1.51;100.00;98776.41;2596979;28;20102;-83
2022/12/03 01:42:46;;;;;;;35.42;13.70;;;;;;;1.45;100.00;98773.75;2597161;28;20045;-83
2022/12/03 01:44:06;;;;;;;41.85;15.55;;;;;;;1.47;100.00;98769.47;2597010;28;20060;-84
2022/12/03 01:45:22;;;;;;;38.10;15.25;;;;;;;1.58;100.00;98774.75;2597250;28;20049;-84
2022/12/03 01:46:40;;;;;;;42.97;15.68;;;;;;;1.65;100.00;98771.44;2596790;28;20495;-83
2022/12/03 01:47:56;;;;;;;37.40;15.02;;;;;;;1.48;100.00;98776.34;2597143;28;20095;-83
2022/12/03 01:49:17;;;;;;;34.95;14.63;;;;;;;1.59;100.00;98771.34;2596748;28;20087;-82
2022/12/03 01:50:33;;;;;;;38.97;15.23;;;;;;;1.57;100.00;98767.03;2596791;28;20050;-84
2022/12/03 01:51:51;;;;;;;41.47;14.90;;;;;;;1.46;100.00;98772.00;2597012;28;20404;-82
2022/12/03 01:53:10;;;;;;;39.10;15.30;;;;;;;1.19;100.00;98776.81;2596776;28;20156;-84
2022/12/03 01:54:33;;;;;;;40.42;15.75;;;;;;;1.52;100.00;98770.38;2596821;28;20057;-82
2022/12/03 01:55:48;;;;;;;43.35;16.13;;;;;;;1.34;100.00;98778.75;2596837;28;20136;-84
2022/12/03 01:57:12;;;;;;;43.47;15.00;;;;;;;1.53;100.00;98777.28;2596682;28;20099;-83
2022/12/03 01:58:28;;;;;;;40.45;15.18;;;;;;;1.57;100.00;98774.75;2596856;28;20407;-83
2022/12/03 01:59:44;;;;;;;41.40;15.70;;;;;;;1.50;100.00;98776.38;2596365;28;20096;-84
2022/12/03 02:01:05;;;;;;;43.00;15.57;;;;;;;1.48;100.00;98776.34;2596849;28;20053;-83
2022/12/03 02:02:24;;;;;;;40.35;14.07;;;;;;;1.56;100.00;98771.31;2597075;28;20050;-82
2022/12/03 02:03:40;;;;;;;35.45;14.10;;;;;;;1.55;100.00;98773.03;2596562;28;20419;-87
2022/12/03 02:04:56;;;;;;;42.17;15.10;;;;;;;1.47;100.00;98784.09;2596466;28;20081;-83
2022/12/03 02:06:20;;;;;;;38.72;15.23;;;;;;;1.76;100.00;98778.47;2596780;28;20059;-83
2022/12/03 02:07:35;;;;;;;40.20;15.38;;;;;;;1.67;100.00;98781.75;2596867;28;20125;-83
2022/12/03 02:08:57;;;;;;;38.08;15.32;;;;;;;1.57;100.00;98780.78;2596805;28;20057;-83
2022/12/03 02:10:15;;;;;;;36.85;14.75;;;;;;;1.67;100.00;98784.34;2596483;28;20456;-84
2022/12/03 02:11:33;;;;;;;37.58;15.55;;;;;;;1.76;100.00;98775.88;2596498;28;20455;-83
2022/12/03 02:13:15;;;;;;;38.42;14.65;;;;;;;1.82;100.00;98782.00;2596741;28;20050;-84
2022/12/03 02:14:31;;;;;;;35.35;13.70;;;;;;;1.66;100.00;98782.59;2595708;28;20049;-82
2022/12/03 02:15:46;;;;;;;37.65;15.25;;;;;;;1.41;100.00;98777.97;2596760;28;20053;-88
2022/12/03 02:17:02;;;;;;;38.10;14.20;;;;;;;1.57;100.00;98778.19;2596504;28;20095;-84
2022/12/03 02:18:18;;;;;;;39.78;14.75;;;;;;;1.49;100.00;98785.84;2596606;28;20419;-84
2022/12/03 02:19:34;;;;;;;39.00;15.27;;;;;;;1.72;100.00;98782.72;2596240;28;20463;-82
2022/12/03 02:21:08;;;;;;;39.67;14.75;;;;;;;1.67;100.00;98776.59;2596332;28;20080;-83
2022/12/03 02:23:09;;;;;;;35.83;14.55;;;;;;;1.69;100.00;98774.94;2596489;28;20077;-83
2022/12/03 02:24:32;;;;;;;34.58;12.85;;;;;;;1.60;100.00;98777.38;2596129;28;20053;-83
2022/12/03 02:25:48;;;;;;;36.80;14.25;;;;;;;1.78;100.00;98775.03;2596430;28;20156;-83
2022/12/03 02:27:04;;;;;;;39.45;14.50;;;;;;;1.82;100.00;98779.41;2596514;28;20049;-85
2022/12/03 02:28:19;;;;;;;37.58;14.30;;;;;;;1.62;100.00;98771.41;2596290;28;20049;-84
2022/12/03 02:29:35;;;;;;;42.83;15.00;;;;;;;1.69;100.00;98772.34;2595993;28;20411;-83
2022/12/03 02:30:51;;;;;;;37.05;14.90;;;;;;;1.75;100.00;98767.25;2596591;28;20073;-83
2022/12/03 02:32:07;;;;;;;43.33;14.88;;;;;;;1.73;100.00;98771.53;2596679;28;20535;-83
2022/12/03 02:33:22;;;;;;;41.50;15.68;;;;;;;1.74;100.00;98767.22;2596718;28;20147;-81
2022/12/03 02:34:41;;;;;;;40.95;14.77;;;;;;;1.76;100.00;98770.72;2596309;28;20127;-83
2022/12/03 02:35:57;;;;;;;41.83;15.40;;;;;;;1.80;100.00;98770.75;2596311;28;20054;-81
2022/12/03 02:37:16;;;;;;;39.85;14.48;;;;;;;1.76;100.00;98775.88;2596543;28;20057;-82
2022/12/03 02:38:34;;;;;;;38.75;14.65;;;;;;;1.68;100.00;98768.03;2596433;28;20489;-91
2022/12/03 02:39:57;;;;;;;38.60;14.00;;;;;;;1.57;100.00;98773.03;2596257;28;20049;-83
2022/12/03 02:42:33;;;;;;;46.15;15.77;;;;;;;1.60;100.00;98772.22;2596090;28;20081;-84
2022/12/03 02:42:55;;;;;;;33.58;14.23;;;;;;;1.59;100.00;98770.47;2596216;28;20467;-84
2022/12/03 02:44:11;;;;;;;36.83;14.45;;;;;;;1.45;100.00;98771.16;2596149;28;20099;-82
2022/12/03 02:45:38;;;;;;;35.55;14.43;;;;;;;1.47;100.00;98766.88;2596335;28;20057;-84
2022/12/03 02:46:54;;;;;;;45.85;15.68;;;;;;;1.58;100.00;98773.91;2596329;28;20221;-82
2022/12/03 02:48:22;;;;;;;41.53;15.27;;;;;;;1.48;100.00;98776.34;2596468;28;20103;-82
2022/12/03 02:49:38;;;;;;;36.90;14.02;;;;;;;1.53;100.00;98769.53;2596028;28;20101;-82
2022/12/03 02:50:58;;;;;;;38.15;15.07;;;;;;;1.59;100.00;98773.06;2596181;28;20048;-82
2022/12/03 02:52:14;;;;;;;41.13;15.48;;;;;;;1.65;100.00;98763.69;2595826;28;20551;-84
2022/12/03 02:53:33;;;;;;;37.70;14.15;;;;;;;1.70;100.00;98771.50;2596251;28;20433;-84
2022/12/03 02:54:49;;;;;;;42.38;15.65;;;;;;;1.79;100.00;98769.00;2596134;28;20045;-84
2022/12/03 02:56:05;;;;;;;39.45;15.50;;;;;;;1.68;100.00;98775.78;2596029;28;20109;-84
2022/12/03 02:57:21;;;;;;;41.70;16.20;;;;;;;1.69;100.00;98772.34;2595869;28;20132;-88
2022/12/03 02:58:37;;;;;;;39.80;14.68;;;;;;;1.63;100.00;98777.41;2596173;28;20060;-84
2022/12/03 02:59:53;;;;;;;39.40;15.68;;;;;;;1.73;100.00;98774.13;2595655;28;20072;-83
2022/12/03 03:01:09;;;;;;;37.38;14.35;;;;;;;1.67;100.00;98769.75;2596109;28;20077;-85
2022/12/03 03:02:27;;;;;;;39.75;14.60;;;;;;;1.62;100.00;98767.94;2596011;28;20057;-83
2022/12/03 03:03:44;;;;;;;42.13;15.63;;;;;;;1.68;100.00;98770.63;2595933;28;20088;-81
2022/12/03 03:04:59;;;;;;;37.92;15.57;;;;;;;1.68;100.00;98770.63;2596258;28;20053;-85
2022/12/03 03:06:17;;;;;;;39.53;14.88;;;;;;;1.72;100.00;98767.22;2596228;28;20060;-82
2022/12/03 03:07:34;;;;;;;38.97;14.73;;;;;;;1.78;100.00;98766.44;2596302;28;20107;-83
2022/12/03 03:08:50;;;;;;;38.50;14.73;;;;;;;1.67;100.00;98771.44;2596298;28;20045;-82
2022/12/03 03:10:10;;;;;;;39.35;14.70;;;;;;;1.88;100.00;98770.00;2595733;28;20049;-86
2022/12/03 03:11:26;;;;;;;35.75;14.60;;;;;;;1.68;100.00;98768.88;2596429;28;20539;-82
2022/12/03 03:12:42;;;;;;;39.60;14.70;;;;;;;1.72;100.00;98772.38;2596436;28;20095;-83
2022/12/03 03:14:00;;;;;;;41.70;14.65;;;;;;;1.64;100.00;98773.97;2596268;28;20443;-82
2022/12/03 03:15:16;;;;;;;40.50;15.32;;;;;;;1.75;100.00;98771.56;2596006;28;20042;-82
2022/12/03 03:16:33;;;;;;;36.95;15.00;;;;;;;1.46;100.00;98774.59;2596324;28;20069;-83
2022/12/03 03:17:49;;;;;;;43.80;17.00;;;;;;;1.33;100.00;98774.44;2595977;28;20692;-85
2022/12/03 03:19:05;;;;;;;46.10;15.95;;;;;;;1.52;100.00;98769.53;2596353;28;20046;-82
2022/12/03 03:20:20;;;;;;;42.17;15.90;;;;;;;1.48;100.00;98762.59;2596157;28;20060;-82
2022/12/03 03:21:36;;;;;;;45.58;16.42;;;;;;;1.29;100.00;98770.06;2596359;28;20045;-83
2022/12/03 03:22:52;;;;;;;47.17;16.92;;;;;;;1.40;100.00;98765.09;2595670;28;20515;-83
2022/12/03 03:24:07;;;;;;;43.13;14.95;;;;;;;1.54;100.00;98760.97;2596161;28;20053;-82
2022/12/03 03:25:23;;;;;;;40.45;14.57;;;;;;;1.33;100.00;98764.13;2596179;28;20079;-82
2022/12/03 03:26:39;;;;;;;49.70;16.92;;;;;;;1.59;100.00;98760.16;2596068;28;20100;-85
2022/12/03 03:27:55;;;;;;;43.35;15.77;;;;;;;1.62;100.00;98760.19;2596336;28;20049;-83
2022/12/03 03:29:11;;;;;;;52.97;17.05;;;;;;;1.77;100.00;98764.69;2596307;28;20404;-83
2022/12/03 03:30:27;;;;;;;44.38;16.10;;;;;;;1.79;100.00;98760.41;2596091;28;20215;-85
2022/12/03 03:31:45;;;;;;;47.42;16.30;;;;;;;1.63;100.00;98764.50;2596181;28;20060;-85
2022/12/03 03:33:00;;;;;;;44.55;15.13;;;;;;;1.59;100.00;98765.31;2596135;28;20077;-84
2022/12/03 03:34:16;;;;;;;47.55;16.23;;;;;;;1.73;100.00;98766.38;2596261;28;20480;-83
2022/12/03 03:35:32;;;;;;;47.90;16.23;;;;;;;1.60;100.00;98761.91;2596141;28;20072;-82
2022/12/03 03:36:47;;;;;;;39.78;14.23;;;;;;;1.48;100.00;98767.75;2595632;28;20057;-83
2022/12/03 03:38:04;;;;;;;44.40;16.25;;;;;;;1.67;100.00;98769.75;2596266;28;20057;-84
2022/12/03 03:39:19;;;;;;;43.83;15.43;;;;;;;1.68;100.00;98771.47;2595922;28;20050;-82
2022/12/03 03:40:36;;;;;;;43.70;14.75;;;;;;;1.56;100.00;98768.72;2596193;28;20056;-83
2022/12/03 03:41:52;;;;;;;38.78;15.63;;;;;;;1.75;100.00;98767.25;2595959;28;20110;-84
2022/12/03 03:43:08;;;;;;;40.92;14.20;;;;;;;1.80;100.00;98765.59;2595706;28;20049;-83
2022/12/03 03:44:23;;;;;;;47.20;16.33;;;;;;;1.83;100.00;98764.75;2596239;28;20489;-82
2022/12/03 03:45:39;;;;;;;42.72;15.48;;;;;;;1.74;100.00;98770.69;2596343;28;20056;-82
2022/12/03 03:46:56;;;;;;;42.75;15.15;;;;;;;1.84;100.00;98769.06;2595959;28;20053;-83
2022/12/03 03:48:12;;;;;;;44.33;14.70;;;;;;;1.76;100.00;98768.13;2596267;28;20875;-84
2022/12/03 03:49:28;;;;;;;39.10;14.50;;;;;;;1.77;100.00;98767.28;2596123;28;20224;-82
2022/12/03 03:50:44;;;;;;;38.40;15.52;;;;;;;1.72;100.00;98774.09;2596104;28;20196;-83
2022/12/03 03:52:00;;;;;;;41.75;15.65;;;;;;;1.76;100.00;98771.56;2596341;28;20069;-84
2022/12/03 03:53:17;;;;;;;45.13;15.68;;;;;;;1.74;100.00;98767.22;2595846;28;20053;-82
2022/12/03 03:54:32;;;;;;;43.03;15.25;;;;;;;1.68;100.00;98771.47;2596106;28;20057;-82
2022/12/03 03:55:48;;;;;;;45.65;16.08;;;;;;;1.65;100.00;98767.97;2595861;28;20497;-83
2022/12/03 03:57:04;;;;;;;39.95;15.23;;;;;;;1.80;100.00;98769.91;2595867;28;20114;-85
2022/12/03 03:58:20;;;;;;;38.20;15.32;;;;;;;1.67;100.00;98767.16;2595601;28;20077;-83
2022/12/03 03:59:36;;;;;;;42.08;15.30;;;;;;;1.63;100.00;98764.50;2595720;28;20064;-83
2022/12/03 04:00:52;;;;;;;42.97;15.30;;;;;;;1.62;100.00;98763.66;2595766;28;20053;-82
2022/12/03 04:02:19;;;;;;;39.45;15.30;;;;;;;1.80;100.00;98765.59;2595914;28;20083;-82
2022/12/03 04:03:35;;;;;;;41.65;14.75;;;;;;;1.87;100.00;98758.78;2597654;28;20559;-82
2022/12/03 04:04:51;;;;;;;42.70;15.45;;;;;;;1.72;100.00;98764.63;2597767;28;20072;-83
2022/12/03 04:06:07;;;;;;;40.22;14.32;;;;;;;1.78;100.00;98763.84;2597927;28;20077;-82
2022/12/03 04:07:23;;;;;;;37.92;14.13;;;;;;;1.76;100.00;98763.81;2597615;28;20060;-83
2022/12/03 04:08:39;;;;;;;38.30;14.88;;;;;;;1.85;100.00;98767.38;2597424;28;20049;-83
2022/12/03 04:09:54;;;;;;;39.70;14.10;;;;;;;1.66;100.00;98761.97;2597423;28;20050;-84
2022/12/03 04:12:56;;;;;;;39.63;14.18;;;;;;;1.82;100.00;98755.28;2597889;28;20408;-83
2022/12/03 04:14:12;;;;;;;42.00;15.50;;;;;;;1.66;100.00;98761.97;2597677;28;20089;-82
2022/12/03 04:15:28;;;;;;;44.15;15.20;;;;;;;1.69;100.00;98756.88;2597571;28;20575;-83
2022/12/03 04:16:44;;;;;;;40.00;15.05;;;;;;;1.78;100.00;98754.38;2597948;28;20451;-84
2022/12/03 04:19:34;;;;;;;47.55;16.00;;;;;;;1.67;100.00;98753.38;2597670;28;20076;-84
2022/12/03 04:20:49;;;;;;;39.75;15.20;;;;;;;1.64;100.00;98749.06;2597573;28;20049;-83
2022/12/03 04:23:39;;;;;;;38.90;14.32;;;;;;;1.95;100.00;98756.28;2597981;28;20836;-85
2022/12/03 04:28:47;;;;;;;40.45;15.50;;;;;;;1.94;100.00;98746.81;2597671;28;20054;-83
2022/12/03 04:29:39;;;;;;;41.72;15.05;;;;;;;1.90;100.00;98750.22;2597364;28;20084;-83
2022/12/03 04:30:55;;;;;;;46.80;16.27;;;;;;;1.93;100.00;98747.66;2597550;28;20054;-83
2022/12/03 04:36:53;;;;;;;42.78;14.63;;;;;;;1.76;100.00;98755.22;2597672;28;20093;-83
2022/12/03 04:38:10;;;;;;;43.83;15.80;;;;;;;1.77;100.00;98750.06;2597341;28;20164;-84
2022/12/03 04:39:25;;;;;;;48.65;15.18;;;;;;;1.72;100.00;98745.69;2597329;28;20488;-82
2022/12/03 04:40:59;;;;;;;47.55;15.35;;;;;;;1.55;100.00;98743.75;2597207;28;20079;-83
2022/12/03 04:42:15;;;;;;;45.58;15.48;;;;;;;1.53;100.00;98746.31;2597287;28;20060;-85
2022/12/03 04:43:33;;;;;;;51.95;18.15;;;;;;;1.73;100.00;98748.31;2597382;28;20497;-84
2022/12/03 04:44:48;;;;;;;45.58;15.48;;;;;;;1.50;100.00;98746.28;2597263;28;20148;-82
2022/12/03 04:46:04;;;;;;;53.08;18.42;;;;;;;1.62;100.00;98750.75;2596932;28;20050;-87
2022/12/03 04:47:20;;;;;;;45.15;17.27;;;;;;;1.60;100.00;98741.25;2597176;28;20053;-83
2022/12/03 04:48:36;;;;;;;55.03;17.65;;;;;;;1.36;100.00;98743.53;2597551;28;20061;-82
2022/12/03 04:49:51;;;;;;;49.78;16.98;;;;;;;1.52;100.00;98739.41;2597199;28;20049;-83
2022/12/03 04:51:07;;;;;;;52.53;17.65;;;;;;;1.52;100.00;98746.31;2597391;28;20316;-83
2022/12/03 04:52:23;;;;;;;42.63;16.63;;;;;;;1.59;100.00;98740.38;2597390;28;20064;-84
2022/12/03 04:53:38;;;;;;;51.90;17.15;;;;;;;1.63;100.00;98739.59;2597498;28;20049;-82
2022/12/03 04:54:54;;;;;;;49.75;17.20;;;;;;;1.67;100.00;98738.75;2596352;28;20647;-82
2022/12/03 04:56:10;;;;;;;46.65;16.38;;;;;;;1.57;100.00;98742.06;2596547;28;20402;-86
2022/12/03 04:57:25;;;;;;;44.90;17.20;;;;;;;1.69;100.00;98741.38;2597092;28;20046;-83
2022/12/03 04:58:41;;;;;;;49.38;17.30;;;;;;;1.62;100.00;98749.88;2597077;28;20083;-83
2022/12/03 04:59:57;;;;;;;50.00;16.27;;;;;;;1.68;100.00;98748.25;2596960;28;20052;-82
2022/12/03 05:01:12;;;;;;;41.55;15.10;;;;;;;1.60;100.00;98754.16;2597333;28;20119;-83
2022/12/03 05:02:28;;;;;;;50.20;17.13;;;;;;;1.74;100.00;98749.16;2597332;28;20049;-89
2022/12/03 05:03:43;;;;;;;45.90;16.35;;;;;;;1.74;100.00;98747.44;2597598;28;20046;-84
2022/12/03 05:04:59;;;;;;;49.10;17.48;;;;;;;1.63;100.00;98749.91;2597124;28;20103;-85
2022/12/03 05:06:15;;;;;;;43.78;14.90;;;;;;;1.78;100.00;98748.38;2597021;28;20049;-82
2022/12/03 05:07:31;;;;;;;46.92;16.58;;;;;;;1.72;100.00;98751.72;2597425;28;20092;-85
2022/12/03 05:08:46;;;;;;;42.95;15.25;;;;;;;1.63;100.00;98749.91;2597617;28;20049;-84
2022/12/03 05:10:03;;;;;;;41.10;16.30;;;;;;;1.73;100.00;98750.88;2597040;28;20053;-83
2022/12/03 05:11:19;;;;;;;39.35;14.93;;;;;;;1.47;100.00;98753.13;2597105;28;20092;-84
2022/12/03 05:12:35;;;;;;;42.05;16.00;;;;;;;1.62;100.00;98755.91;2597010;28;20046;-82
2022/12/03 05:13:51;;;;;;;49.80;15.93;;;;;;;1.84;100.00;98748.44;2597035;28;20107;-83
2022/12/03 05:15:07;;;;;;;47.35;15.38;;;;;;;1.50;100.00;98759.19;2596501;28;20049;-82
2022/12/03 05:16:22;;;;;;;48.10;17.40;;;;;;;1.72;100.00;98761.19;2596644;28;20137;-82
2022/12/03 05:17:38;;;;;;;46.47;16.60;;;;;;;1.85;100.00;98754.47;2597171;28;20054;-86
2022/12/03 05:18:53;;;;;;;48.53;17.45;;;;;;;1.85;100.00;98752.75;2597072;28;20049;-84
2022/12/03 05:21:44;;;;;;;50.60;15.70;;;;;;;1.64;100.00;98755.91;2596897;28;20077;-83
2022/12/03 05:23:00;;;;;;;50.15;17.50;;;;;;;1.50;100.00;98755.75;2597236;28;20046;-83
2022/12/03 05:24:15;;;;;;;46.50;16.80;;;;;;;1.46;100.00;98757.41;2597092;28;20132;-83
2022/12/03 05:25:31;;;;;;;52.03;16.77;;;;;;;1.57;100.00;98764.44;2596872;28;20073;-85
2022/12/03 05:26:46;;;;;;;49.35;17.02;;;;;;;1.77;100.00;98757.81;2596926;28;20057;-83
2022/12/03 05:28:02;;;;;;;46.75;17.15;;;;;;;1.73;100.00;98758.63;2596970;28;20045;-84
2022/12/03 05:29:18;;;;;;;50.22;16.73;;;;;;;1.62;100.00;98753.34;2596738;28;20048;-82
2022/12/03 05:30:34;;;;;;;49.53;16.15;;;;;;;1.47;100.00;98756.56;2596833;28;20053;-83
2022/12/03 05:31:50;;;;;;;48.10;16.30;;;;;;;1.36;100.00;98759.00;2596449;28;20055;-85
2022/12/03 05:33:06;;;;;;;52.17;16.92;;;;;;;1.32;100.00;98764.09;2596860;28;20111;-83
2022/12/03 05:34:21;;;;;;;50.03;16.33;;;;;;;1.31;100.00;98762.34;2596863;28;20072;-82
2022/12/03 05:35:37;;;;;;;53.38;17.45;;;;;;;1.32;100.00;98759.78;2596329;28;20049;-83
2022/12/03 05:36:53;;;;;;;59.17;18.23;;;;;;;1.38;100.00;98764.16;2596675;28;20064;-83
2022/12/03 05:38:08;;;;;;;49.58;16.92;;;;;;;1.55;100.00;98767.88;2596127;28;20056;-83
2022/12/03 05:39:27;;;;;;;52.17;17.02;;;;;;;1.24;100.00;98766.56;2596188;28;20407;-83
2022/12/03 05:40:43;;;;;;;53.55;18.42;;;;;;;1.47;100.00;98764.31;2596226;28;20115;-90
2022/12/03 05:43:35;;;;;;;52.78;17.35;;;;;;;1.72;100.00;98769.81;2596679;28;20175;-83
2022/12/03 05:44:51;;;;;;;50.22;16.90;;;;;;;1.77;100.00;98765.56;2596503;28;20073;-83
2022/12/03 05:46:09;;;;;;;49.88;17.33;;;;;;;1.75;100.00;98768.97;2596637;28;20061;-82
2022/12/03 05:47:25;;;;;;;50.03;16.08;;;;;;;1.78;100.00;98756.97;2596421;28;20072;-82
2022/12/03 05:48:41;;;;;;;55.53;17.33;;;;;;;1.80;100.00;98763.00;2596283;28;20045;-85
2022/12/03 05:49:56;;;;;;;50.88;17.27;;;;;;;1.79;100.00;98758.69;2596152;28;20059;-82
2022/12/03 05:51:12;;;;;;;48.08;16.58;;;;;;;1.86;100.00;98756.19;2596460;28;20068;-82
2022/12/03 05:52:27;;;;;;;53.50;18.73;;;;;;;1.89;100.00;98763.97;2596176;28;20053;-83
2022/12/03 05:53:43;;;;;;;44.25;17.50;;;;;;;1.89;100.00;98758.81;2596498;28;20532;-87
2022/12/03 05:54:58;;;;;;;49.40;17.75;;;;;;;1.76;100.00;98758.66;2596304;28;20049;-83
2022/12/03 05:56:14;;;;;;;42.17;15.70;;;;;;;1.77;100.00;98759.53;2596251;28;20072;-83
2022/12/03 05:57:30;;;;;;;51.78;16.95;;;;;;;1.81;100.00;98757.00;2596115;28;20044;-82
2022/12/03 05:58:45;;;;;;;49.00;17.42;;;;;;;1.83;100.00;98755.31;2596148;28;20561;-82
2022/12/03 06:00:01;;;;;;;47.00;16.02;;;;;;;1.85;100.00;98759.63;2596231;28;20041;-82
2022/12/03 06:01:16;;;;;;;51.13;16.67;;;;;;;1.63;100.00;98756.75;2596182;28;20049;-83
2022/12/03 06:02:33;;;;;;;53.67;17.40;;;;;;;1.80;100.00;98760.41;2596201;28;20439;-83
2022/12/03 06:03:48;;;;;;;49.45;16.88;;;;;;;1.76;100.00;98758.66;2596315;28;20187;-82
2022/12/03 06:05:04;;;;;;;43.83;16.17;;;;;;;1.90;100.00;98761.44;2595849;28;20504;-83
2022/12/03 06:06:23;;;;;;;50.70;16.95;;;;;;;1.95;100.00;98764.03;2596288;28;20053;-83
2022/12/03 06:07:40;;;;;;;45.88;15.93;;;;;;;1.64;100.00;98763.66;2596172;28;20045;-85
2022/12/03 06:08:59;;;;;;;47.67;16.52;;;;;;;1.22;100.00;98760.50;2595868;28;20389;-83
2022/12/03 06:10:21;;;;;;;49.90;16.58;;;;;;;1.43;100.00;98759.97;2595995;28;20077;-83